createdAt,value
2019-03-31T00:00:34.722Z,21.15
2019-03-31T00:01:34.749Z,21.13
2019-03-31T00:02:34.734Z,21.12
2019-03-31T00:03:34.820Z,21.21
2019-03-31T00:04:34.806Z,21.21
2019-03-31T00:05:37.350Z,21.16
2019-03-31T00:07:34.945Z,21.21
2019-03-31T00:08:34.984Z,21.18
2019-03-31T00:09:34.970Z,21.09
2019-03-31T00:10:34.992Z,21.09
2019-03-31T00:11:35.779Z,21.15
2019-03-31T00:12:35.361Z,21.06
2019-03-31T00:13:35.147Z,21.11
2019-03-31T00:14:35.170Z,21.11
2019-03-31T00:15:35.157Z,21.08
2019-03-31T00:16:35.232Z,21.09
2019-03-31T00:18:35.300Z,21.15
2019-03-31T00:19:35.589Z,21.13
2019-03-31T00:20:35.364Z,21.06
2019-03-31T00:21:35.400Z,21.09
2019-03-31T00:23:35.417Z,21.06
2019-03-31T00:24:35.498Z,21.00
2019-03-31T00:25:35.480Z,21.03
2019-03-31T00:26:35.862Z,21.09
2019-03-31T00:27:35.597Z,21.06
2019-03-31T00:28:35.625Z,21.08
2019-03-31T00:29:35.605Z,21.09
2019-03-31T00:30:35.643Z,21.05
2019-03-31T00:32:35.761Z,21.03
2019-03-31T00:33:36.044Z,21.08
2019-03-31T00:34:35.769Z,21.05
2019-03-31T00:35:35.816Z,21.03
2019-03-31T00:36:35.833Z,21.03
2019-03-31T00:37:35.930Z,21.05
2019-03-31T00:39:35.931Z,21.01
2019-03-31T00:40:36.317Z,21.01
2019-03-31T00:41:35.992Z,20.97
2019-03-31T00:42:36.086Z,20.97
2019-03-31T00:44:36.145Z,20.96
2019-03-31T00:46:36.156Z,21.00
2019-03-31T00:47:36.535Z,20.96
2019-03-31T00:48:36.226Z,21.00
2019-03-31T00:49:36.305Z,20.94
2019-03-31T00:50:36.330Z,20.91
2019-03-31T00:51:36.367Z,20.96
2019-03-31T00:52:36.414Z,20.98
2019-03-31T00:53:36.430Z,20.93
2019-03-31T00:55:36.798Z,20.91
2019-03-31T00:56:36.480Z,20.93
2019-03-31T00:57:36.506Z,20.91
2019-03-31T00:58:36.546Z,20.88
2019-03-31T00:59:36.631Z,20.88
2019-03-31T01:00:36.658Z,21.06
2019-03-31T01:01:37.205Z,20.85
2019-03-31T01:02:36.986Z,20.88
2019-03-31T01:04:36.747Z,20.90
2019-03-31T01:05:36.835Z,20.91
2019-03-31T01:06:36.864Z,20.97
2019-03-31T01:07:36.848Z,20.97
2019-03-31T01:08:36.914Z,20.93
2019-03-31T01:09:37.245Z,20.88
2019-03-31T01:10:36.929Z,20.96
2019-03-31T01:11:36.978Z,20.94
2019-03-31T01:12:37.002Z,20.83
2019-03-31T01:13:37.040Z,20.79
2019-03-31T01:14:37.109Z,20.88
2019-03-31T01:16:37.189Z,20.94
2019-03-31T01:17:37.502Z,20.85
2019-03-31T01:18:37.331Z,20.90
2019-03-31T01:19:37.267Z,20.90
2019-03-31T01:20:37.300Z,20.90
2019-03-31T01:21:37.281Z,20.87
2019-03-31T01:22:37.332Z,20.75
2019-03-31T01:23:37.354Z,20.90
2019-03-31T01:24:37.747Z,20.88
2019-03-31T01:25:37.460Z,20.83
2019-03-31T01:26:37.458Z,20.91
2019-03-31T01:27:37.473Z,20.91
2019-03-31T01:30:37.683Z,20.88
2019-03-31T01:32:37.935Z,20.85
2019-03-31T01:33:37.835Z,20.81
2019-03-31T01:34:37.709Z,20.85
2019-03-31T01:35:37.804Z,20.83
2019-03-31T01:36:37.823Z,20.83
2019-03-31T01:37:37.845Z,20.83
2019-03-31T01:38:37.822Z,20.87
2019-03-31T01:39:38.210Z,20.85
2019-03-31T01:40:37.943Z,20.81
2019-03-31T01:41:37.926Z,20.85
2019-03-31T01:42:38.010Z,20.79
2019-03-31T01:43:38.038Z,20.75
2019-03-31T01:44:38.088Z,20.83
2019-03-31T01:45:38.047Z,20.81
2019-03-31T01:46:38.400Z,20.82
2019-03-31T01:48:38.194Z,20.79
2019-03-31T01:49:38.226Z,20.73
2019-03-31T01:51:38.253Z,20.75
2019-03-31T01:52:38.405Z,20.73
2019-03-31T01:55:38.725Z,20.73
2019-03-31T01:56:38.453Z,20.71
2019-03-31T01:57:38.539Z,20.75
2019-03-31T01:58:38.470Z,20.68
2019-03-31T01:59:38.551Z,20.69
2019-03-31T02:00:38.579Z,20.71
2019-03-31T02:01:38.570Z,20.72
2019-03-31T02:02:38.942Z,20.71
2019-03-31T02:03:38.679Z,20.64
2019-03-31T02:04:38.707Z,20.71
2019-03-31T02:05:38.737Z,20.72
2019-03-31T02:06:38.721Z,20.68
2019-03-31T02:07:38.764Z,20.76
2019-03-31T02:08:38.839Z,20.66
2019-03-31T02:09:39.118Z,20.68
2019-03-31T02:10:38.847Z,20.61
2019-03-31T02:11:38.941Z,20.71
2019-03-31T02:12:38.918Z,20.72
2019-03-31T02:13:38.943Z,20.60
2019-03-31T02:14:38.977Z,20.71
2019-03-31T02:15:39.015Z,20.61
2019-03-31T02:16:39.405Z,20.68
2019-03-31T02:17:39.127Z,20.72
2019-03-31T02:19:39.204Z,20.64
2019-03-31T02:20:39.235Z,20.61
2019-03-31T02:21:39.199Z,20.63
2019-03-31T02:22:39.232Z,20.63
2019-03-31T02:23:39.562Z,20.71
2019-03-31T02:24:39.349Z,20.56
2019-03-31T02:25:39.385Z,20.61
2019-03-31T02:26:39.364Z,20.58
2019-03-31T02:27:39.398Z,20.57
2019-03-31T02:29:39.502Z,20.64
2019-03-31T02:32:39.907Z,20.60
2019-03-31T02:33:39.594Z,20.58
2019-03-31T02:34:39.663Z,20.57
2019-03-31T02:35:39.651Z,20.57
2019-03-31T02:36:39.742Z,20.58
2019-03-31T02:38:39.743Z,20.53
2019-03-31T02:39:40.132Z,20.54
2019-03-31T02:40:39.860Z,20.54
2019-03-31T02:41:39.892Z,20.53
2019-03-31T02:42:39.938Z,20.53
2019-03-31T02:43:39.905Z,20.54
2019-03-31T02:44:39.943Z,20.54
2019-03-31T02:45:40.281Z,20.54
2019-03-31T02:46:40.096Z,20.57
2019-03-31T02:47:40.032Z,20.57
2019-03-31T02:48:40.068Z,20.60
2019-03-31T02:49:40.147Z,20.57
2019-03-31T02:50:40.175Z,20.44
2019-03-31T02:51:40.206Z,20.56
2019-03-31T02:52:40.541Z,20.48
2019-03-31T02:53:40.275Z,20.40
2019-03-31T02:54:40.250Z,20.44
2019-03-31T02:55:40.339Z,20.46
2019-03-31T02:56:40.364Z,20.46
2019-03-31T02:57:40.344Z,20.48
2019-03-31T02:58:40.441Z,20.48
2019-03-31T02:59:40.768Z,20.53
2019-03-31T03:00:40.446Z,20.42
2019-03-31T03:01:40.525Z,20.42
2019-03-31T03:02:42.590Z,20.38
2019-03-31T03:03:40.541Z,20.48
2019-03-31T03:05:40.605Z,20.41
2019-03-31T03:06:40.996Z,20.50
2019-03-31T03:07:40.664Z,20.41
2019-03-31T03:08:40.751Z,20.51
2019-03-31T03:09:40.785Z,20.44
2019-03-31T03:10:40.815Z,20.46
2019-03-31T03:12:40.832Z,20.50
2019-03-31T03:13:41.160Z,20.40
2019-03-31T03:14:40.892Z,20.41
2019-03-31T03:15:40.920Z,20.38
2019-03-31T03:16:40.955Z,20.41
2019-03-31T03:17:40.977Z,20.42
2019-03-31T03:18:41.060Z,20.40
2019-03-31T03:19:41.057Z,20.35
2019-03-31T03:20:41.429Z,20.40
2019-03-31T03:21:41.159Z,20.38
2019-03-31T03:22:41.146Z,20.40
2019-03-31T03:23:41.233Z,20.35
2019-03-31T03:24:41.257Z,20.35
2019-03-31T03:25:54.914Z,20.35
2019-03-31T03:26:41.316Z,20.38
2019-03-31T03:27:41.667Z,20.35
2019-03-31T03:28:41.383Z,20.35
2019-03-31T03:29:41.373Z,20.31
2019-03-31T03:30:41.457Z,20.30
2019-03-31T03:31:41.433Z,20.30
2019-03-31T03:33:10.964Z,20.33
2019-03-31T03:33:41.840Z,20.33
2019-03-31T03:36:43.540Z,20.37
2019-03-31T03:37:41.668Z,20.31
2019-03-31T03:38:41.658Z,20.31
2019-03-31T03:39:42.036Z,20.34
2019-03-31T03:40:41.715Z,20.35
2019-03-31T03:41:41.742Z,20.31
2019-03-31T03:42:41.828Z,20.22
2019-03-31T03:43:55.428Z,20.31
2019-03-31T03:44:41.898Z,20.26
2019-03-31T03:45:42.224Z,20.31
2019-03-31T03:46:41.901Z,20.23
2019-03-31T03:47:41.984Z,20.31
2019-03-31T03:49:42.002Z,20.26
2019-03-31T03:50:42.033Z,20.23
2019-03-31T03:51:42.410Z,20.23
2019-03-31T03:52:42.141Z,20.20
2019-03-31T03:54:42.157Z,20.22
2019-03-31T03:55:42.192Z,20.20
2019-03-31T03:56:42.272Z,20.20
2019-03-31T03:57:42.296Z,20.22
2019-03-31T03:58:42.643Z,20.22
2019-03-31T03:59:42.317Z,20.22
2019-03-31T04:00:42.395Z,20.16
2019-03-31T04:01:42.382Z,20.20
2019-03-31T04:02:42.411Z,20.17
2019-03-31T04:03:42.439Z,20.12
2019-03-31T04:04:42.521Z,20.13
2019-03-31T04:05:42.861Z,20.20
2019-03-31T04:06:42.537Z,20.15
2019-03-31T04:08:42.650Z,20.13
2019-03-31T04:09:42.690Z,20.17
2019-03-31T04:10:42.689Z,20.16
2019-03-31T04:11:42.706Z,20.20
2019-03-31T04:12:43.079Z,20.16
2019-03-31T04:13:42.761Z,20.13
2019-03-31T04:14:42.843Z,20.20
2019-03-31T04:15:42.875Z,20.15
2019-03-31T04:16:42.899Z,20.16
2019-03-31T04:17:42.934Z,20.17
2019-03-31T04:18:42.947Z,20.19
2019-03-31T04:20:43.286Z,20.19
2019-03-31T04:21:43.117Z,20.15
2019-03-31T04:22:43.112Z,20.15
2019-03-31T04:23:43.078Z,20.16
2019-03-31T04:24:43.173Z,20.22
2019-03-31T04:26:43.224Z,20.15
2019-03-31T04:27:43.499Z,20.15
2019-03-31T04:28:43.226Z,20.12
2019-03-31T04:29:43.261Z,20.13
2019-03-31T04:30:43.299Z,20.12
2019-03-31T04:31:43.380Z,20.10
2019-03-31T04:32:43.419Z,20.10
2019-03-31T04:33:51.540Z,20.17
2019-03-31T04:34:43.487Z,20.10
2019-03-31T04:35:43.449Z,20.01
2019-03-31T04:36:43.536Z,20.15
2019-03-31T04:37:43.518Z,20.01
2019-03-31T04:38:43.557Z,20.04
2019-03-31T04:39:43.625Z,20.05
2019-03-31T04:40:43.960Z,20.02
2019-03-31T04:41:43.700Z,20.02
2019-03-31T04:42:43.723Z,20.04
2019-03-31T04:43:43.712Z,20.10
2019-03-31T04:44:43.781Z,20.02
2019-03-31T04:46:43.848Z,20.05
2019-03-31T04:47:44.132Z,20.02
2019-03-31T04:48:43.876Z,20.07
2019-03-31T04:49:43.896Z,20.01
2019-03-31T04:50:43.930Z,20.07
2019-03-31T04:51:44.001Z,20.12
2019-03-31T04:52:44.044Z,20.04
2019-03-31T04:53:44.015Z,20.02
2019-03-31T04:54:44.402Z,20.04
2019-03-31T04:55:44.132Z,20.05
2019-03-31T04:58:44.230Z,20.04
2019-03-31T04:59:44.206Z,20.05
2019-03-31T05:00:44.289Z,20.08
2019-03-31T05:02:44.653Z,20.00
2019-03-31T05:03:44.385Z,19.92
2019-03-31T05:04:44.412Z,20.07
2019-03-31T05:05:44.390Z,19.94
2019-03-31T05:06:44.427Z,20.05
2019-03-31T05:07:44.453Z,19.94
2019-03-31T05:08:44.538Z,19.87
2019-03-31T05:09:44.815Z,19.90
2019-03-31T05:10:44.547Z,19.94
2019-03-31T05:11:44.585Z,19.95
2019-03-31T05:12:44.616Z,19.97
2019-03-31T05:13:44.699Z,19.90
2019-03-31T05:14:44.682Z,19.94
2019-03-31T05:15:44.763Z,19.92
2019-03-31T05:16:45.038Z,19.95
2019-03-31T05:17:44.821Z,19.92
2019-03-31T05:18:44.807Z,19.94
2019-03-31T05:19:44.884Z,19.92
2019-03-31T05:20:44.916Z,19.92
2019-03-31T05:21:44.899Z,19.92
2019-03-31T05:22:44.989Z,19.95
2019-03-31T05:23:45.256Z,19.90
2019-03-31T05:24:45.044Z,19.89
2019-03-31T05:26:45.054Z,19.87
2019-03-31T05:27:45.141Z,19.87
2019-03-31T05:28:45.122Z,19.90
2019-03-31T05:29:45.160Z,19.89
2019-03-31T05:30:45.182Z,19.94
2019-03-31T05:31:45.265Z,19.92
2019-03-31T05:32:45.294Z,19.87
2019-03-31T05:33:45.279Z,19.92
2019-03-31T05:34:45.308Z,19.97
2019-03-31T05:35:45.345Z,19.92
2019-03-31T05:36:45.713Z,19.92
2019-03-31T05:37:51.309Z,19.94
2019-03-31T05:38:45.431Z,19.90
2019-03-31T05:39:45.460Z,19.89
2019-03-31T05:40:45.553Z,19.92
2019-03-31T05:41:45.524Z,19.94
2019-03-31T05:42:45.909Z,19.87
2019-03-31T05:43:45.585Z,19.95
2019-03-31T05:44:45.672Z,19.89
2019-03-31T05:45:45.654Z,19.95
2019-03-31T05:46:45.691Z,19.97
2019-03-31T05:47:45.763Z,19.87
2019-03-31T05:48:46.097Z,19.90
2019-03-31T05:49:45.820Z,19.92
2019-03-31T05:50:45.855Z,19.87
2019-03-31T05:51:45.845Z,19.94
2019-03-31T05:52:45.924Z,19.89
2019-03-31T05:53:45.953Z,19.92
2019-03-31T05:54:46.305Z,19.92
2019-03-31T05:55:46.015Z,19.94
2019-03-31T05:56:46.043Z,19.87
2019-03-31T05:58:46.067Z,19.94
2019-03-31T05:59:46.142Z,19.92
2019-03-31T06:00:46.179Z,19.95
2019-03-31T06:01:46.502Z,19.89
2019-03-31T06:02:46.189Z,19.92
2019-03-31T06:03:46.215Z,19.87
2019-03-31T06:04:46.247Z,19.90
2019-03-31T06:05:46.329Z,19.90
2019-03-31T06:06:46.309Z,19.92
2019-03-31T06:07:46.394Z,19.87
2019-03-31T06:08:46.670Z,19.95
2019-03-31T06:09:46.405Z,19.89
2019-03-31T06:10:46.489Z,19.95
2019-03-31T06:11:46.471Z,19.90
2019-03-31T06:12:46.541Z,19.92
2019-03-31T06:13:46.581Z,19.95
2019-03-31T06:14:46.556Z,19.90
2019-03-31T06:15:46.938Z,19.94
2019-03-31T06:16:46.621Z,19.98
2019-03-31T06:17:46.711Z,19.95
2019-03-31T06:18:46.685Z,19.87
2019-03-31T06:19:46.726Z,19.94
2019-03-31T06:20:46.797Z,19.92
2019-03-31T06:21:46.828Z,19.94
2019-03-31T06:22:46.860Z,19.94
2019-03-31T06:23:46.842Z,19.90
2019-03-31T06:24:46.930Z,19.94
2019-03-31T06:25:46.903Z,19.95
2019-03-31T06:26:46.937Z,20.00
2019-03-31T06:27:47.019Z,19.90
2019-03-31T06:28:47.345Z,19.87
2019-03-31T06:29:47.039Z,20.07
2019-03-31T06:30:47.062Z,19.94
2019-03-31T06:31:47.140Z,20.02
2019-03-31T06:32:47.263Z,20.00
2019-03-31T06:33:47.158Z,20.00
2019-03-31T06:34:48.046Z,20.00
2019-03-31T06:35:47.577Z,20.02
2019-03-31T06:36:47.245Z,20.04
2019-03-31T06:37:47.285Z,20.02
2019-03-31T06:38:47.321Z,20.05
2019-03-31T06:39:47.391Z,20.01
2019-03-31T06:40:47.429Z,20.08
2019-03-31T06:41:47.411Z,20.04
2019-03-31T06:42:47.741Z,20.07
2019-03-31T06:43:47.527Z,20.07
2019-03-31T06:44:47.555Z,20.07
2019-03-31T06:45:47.583Z,20.02
2019-03-31T06:46:47.570Z,20.01
2019-03-31T06:47:47.614Z,20.05
2019-03-31T06:48:47.932Z,20.01
2019-03-31T06:49:47.705Z,20.02
2019-03-31T06:50:47.691Z,20.10
2019-03-31T06:51:47.773Z,20.02
2019-03-31T06:52:47.804Z,20.10
2019-03-31T06:53:47.842Z,20.05
2019-03-31T06:54:48.267Z,20.04
2019-03-31T06:55:47.851Z,20.02
2019-03-31T06:56:47.883Z,20.07
2019-03-31T06:57:47.962Z,20.00
2019-03-31T06:58:47.991Z,20.05
2019-03-31T06:59:47.970Z,20.15
2019-03-31T07:00:48.307Z,20.10
2019-03-31T07:01:48.037Z,20.10
2019-03-31T07:02:48.118Z,20.15
2019-03-31T07:03:48.145Z,20.15
2019-03-31T07:05:00.426Z,20.17
2019-03-31T07:05:48.168Z,20.19
2019-03-31T07:06:48.191Z,20.17
2019-03-31T07:07:48.572Z,20.13
2019-03-31T07:08:48.312Z,20.19
2019-03-31T07:09:48.337Z,20.19
2019-03-31T07:10:48.319Z,20.15
2019-03-31T07:11:48.507Z,20.16
2019-03-31T07:12:48.443Z,20.23
2019-03-31T07:13:48.421Z,20.17
2019-03-31T07:14:48.792Z,20.13
2019-03-31T07:15:48.482Z,20.13
2019-03-31T07:16:48.568Z,20.12
2019-03-31T07:17:48.604Z,20.17
2019-03-31T07:18:48.569Z,20.13
2019-03-31T07:19:48.657Z,20.16
2019-03-31T07:20:48.691Z,20.17
2019-03-31T07:21:49.019Z,20.20
2019-03-31T07:22:48.756Z,20.19
2019-03-31T07:23:48.917Z,20.26
2019-03-31T07:24:48.870Z,20.23
2019-03-31T07:25:48.795Z,20.22
2019-03-31T07:26:48.824Z,20.20
2019-03-31T07:27:48.902Z,20.26
2019-03-31T07:28:49.241Z,20.25
2019-03-31T07:29:49.274Z,20.30
2019-03-31T07:30:49.069Z,20.30
2019-03-31T07:31:48.995Z,20.34
2019-03-31T07:32:49.020Z,20.31
2019-03-31T07:33:49.112Z,20.34
2019-03-31T07:35:49.171Z,20.30
2019-03-31T07:36:49.501Z,20.31
2019-03-31T07:37:49.175Z,20.33
2019-03-31T07:38:49.377Z,20.42
2019-03-31T07:39:49.360Z,20.38
2019-03-31T07:40:49.482Z,20.31
2019-03-31T07:43:49.414Z,20.35
2019-03-31T07:44:49.754Z,20.35
2019-03-31T07:45:49.485Z,20.46
2019-03-31T07:46:49.453Z,20.46
2019-03-31T07:47:49.501Z,20.42
2019-03-31T07:48:49.602Z,20.46
2019-03-31T07:49:49.553Z,20.46
2019-03-31T07:50:49.643Z,20.50
2019-03-31T07:51:50.697Z,20.44
2019-03-31T07:52:50.909Z,20.48
2019-03-31T07:53:50.505Z,20.44
2019-03-31T07:54:49.917Z,20.46
2019-03-31T07:55:50.663Z,20.42
2019-03-31T07:56:49.829Z,20.44
2019-03-31T07:58:52.355Z,20.57
2019-03-31T07:59:49.899Z,20.56
2019-03-31T08:00:52.845Z,20.54
2019-03-31T08:01:49.991Z,20.53
2019-03-31T08:02:50.046Z,20.64
2019-03-31T08:03:50.100Z,20.57
2019-03-31T08:04:50.133Z,20.64
2019-03-31T08:05:52.048Z,20.58
2019-03-31T08:06:50.251Z,20.57
2019-03-31T08:07:50.172Z,20.58
2019-03-31T08:08:53.193Z,20.64
2019-03-31T08:09:50.195Z,20.64
2019-03-31T08:10:50.215Z,20.63
2019-03-31T08:11:50.317Z,20.61
2019-03-31T08:12:50.585Z,20.63
2019-03-31T08:13:50.313Z,20.61
2019-03-31T08:14:50.403Z,20.69
2019-03-31T08:15:50.434Z,20.71
2019-03-31T08:16:50.463Z,20.71
2019-03-31T08:17:50.445Z,20.72
2019-03-31T08:18:50.474Z,20.73
2019-03-31T08:19:50.805Z,20.82
2019-03-31T08:22:50.663Z,20.81
2019-03-31T08:23:50.637Z,20.83
2019-03-31T08:24:50.718Z,20.83
2019-03-31T08:25:50.746Z,20.82
2019-03-31T08:27:51.119Z,20.88
2019-03-31T08:28:50.794Z,20.85
2019-03-31T08:30:00.198Z,20.88
2019-03-31T08:30:50.914Z,20.83
2019-03-31T08:31:50.888Z,20.83
2019-03-31T08:32:50.976Z,20.90
2019-03-31T08:33:51.005Z,20.90
2019-03-31T08:34:51.289Z,20.94
2019-03-31T08:35:51.074Z,20.93
2019-03-31T08:36:51.099Z,21.00
2019-03-31T08:37:51.153Z,20.96
2019-03-31T08:38:51.181Z,21.00
2019-03-31T08:39:51.146Z,20.98
2019-03-31T08:40:51.178Z,20.97
2019-03-31T08:41:51.565Z,20.98
2019-03-31T08:42:51.297Z,21.09
2019-03-31T08:43:51.331Z,21.03
2019-03-31T08:44:51.365Z,21.01
2019-03-31T08:45:51.350Z,21.06
2019-03-31T08:46:51.374Z,21.05
2019-03-31T08:47:51.457Z,21.03
2019-03-31T08:48:51.794Z,21.11
2019-03-31T08:49:51.520Z,21.13
2019-03-31T08:50:51.555Z,21.09
2019-03-31T08:51:51.536Z,21.19
2019-03-31T08:52:51.686Z,21.21
2019-03-31T08:53:51.648Z,21.19
2019-03-31T08:54:51.635Z,21.21
2019-03-31T08:55:51.969Z,21.24
2019-03-31T08:56:51.749Z,21.24
2019-03-31T08:57:51.783Z,21.24
2019-03-31T08:58:51.812Z,21.33
2019-03-31T08:59:51.797Z,21.34
2019-03-31T09:00:51.975Z,21.34
2019-03-31T09:01:51.870Z,21.30
2019-03-31T09:02:52.300Z,21.30
2019-03-31T09:03:51.977Z,21.30
2019-03-31T09:04:52.013Z,21.37
2019-03-31T09:06:01.634Z,21.37
2019-03-31T09:06:52.078Z,21.38
2019-03-31T09:07:52.073Z,21.36
2019-03-31T09:08:52.089Z,21.40
2019-03-31T09:09:52.469Z,21.36
2019-03-31T09:10:52.154Z,21.38
2019-03-31T09:11:52.186Z,21.37
2019-03-31T09:12:52.270Z,21.43
2019-03-31T09:13:52.306Z,21.45
2019-03-31T09:14:52.286Z,21.48
2019-03-31T09:15:52.314Z,21.45
2019-03-31T09:16:52.649Z,21.43
2019-03-31T09:17:54.168Z,21.49
2019-03-31T09:18:52.472Z,21.48
2019-03-31T09:19:52.449Z,21.49
2019-03-31T09:20:52.536Z,21.56
2019-03-31T09:21:52.565Z,21.42
2019-03-31T09:22:52.553Z,21.53
2019-03-31T09:23:52.882Z,21.52
2019-03-31T09:24:52.673Z,21.51
2019-03-31T09:25:52.690Z,21.51
2019-03-31T09:26:52.733Z,21.53
2019-03-31T09:27:52.712Z,21.58
2019-03-31T09:28:52.800Z,21.58
2019-03-31T09:29:52.839Z,21.56
2019-03-31T09:30:53.113Z,21.49
2019-03-31T09:31:52.890Z,21.53
2019-03-31T09:33:52.907Z,21.58
2019-03-31T09:34:53.026Z,21.53
2019-03-31T09:35:52.974Z,21.55
2019-03-31T09:36:53.065Z,21.49
2019-03-31T09:37:53.341Z,21.53
2019-03-31T09:38:53.081Z,21.53
2019-03-31T09:39:53.157Z,21.55
2019-03-31T09:40:53.190Z,21.56
2019-03-31T09:41:53.171Z,21.51
2019-03-31T09:42:53.208Z,21.58
2019-03-31T09:43:53.297Z,21.53
2019-03-31T09:44:53.624Z,21.53
2019-03-31T09:45:53.354Z,21.66
2019-03-31T09:46:53.386Z,21.56
2019-03-31T09:47:53.363Z,21.63
2019-03-31T09:48:53.444Z,21.59
2019-03-31T09:49:53.436Z,21.61
2019-03-31T09:50:56.487Z,21.64
2019-03-31T09:51:53.848Z,21.61
2019-03-31T09:52:53.581Z,21.66
2019-03-31T09:53:53.645Z,21.64
2019-03-31T09:54:53.601Z,21.67
2019-03-31T09:55:53.631Z,21.64
2019-03-31T09:56:53.715Z,21.59
2019-03-31T09:57:54.048Z,21.53
2019-03-31T09:59:53.818Z,21.61
2019-03-31T10:00:53.841Z,21.66
2019-03-31T10:01:53.831Z,21.61
2019-03-31T10:02:53.914Z,21.70
2019-03-31T10:03:54.199Z,21.70
2019-03-31T10:04:53.974Z,21.64
2019-03-31T10:05:53.967Z,21.68
2019-03-31T10:06:53.989Z,21.58
2019-03-31T10:07:54.140Z,21.63
2019-03-31T10:08:54.108Z,21.63
2019-03-31T10:09:54.439Z,21.64
2019-03-31T10:10:54.127Z,21.58
2019-03-31T10:11:54.157Z,21.68
2019-03-31T10:12:54.236Z,21.64
2019-03-31T10:13:54.270Z,21.68
2019-03-31T10:14:54.478Z,21.55
2019-03-31T10:17:54.399Z,21.61
2019-03-31T10:18:54.743Z,21.61
2019-03-31T10:19:54.419Z,21.59
2019-03-31T10:20:54.504Z,21.66
2019-03-31T10:21:54.484Z,21.66
2019-03-31T10:22:54.513Z,21.64
2019-03-31T10:23:54.594Z,21.58
2019-03-31T10:25:54.916Z,21.61
2019-03-31T10:26:54.656Z,21.58
2019-03-31T10:27:54.685Z,21.59
2019-03-31T10:28:54.765Z,21.55
2019-03-31T10:29:54.790Z,21.59
2019-03-31T10:30:54.834Z,21.55
2019-03-31T10:31:55.213Z,21.61
2019-03-31T10:32:54.847Z,21.55
2019-03-31T10:33:54.877Z,21.63
2019-03-31T10:34:54.964Z,21.55
2019-03-31T10:36:55.027Z,21.64
2019-03-31T10:37:55.062Z,21.61
2019-03-31T10:38:55.342Z,21.66
2019-03-31T10:39:55.070Z,21.58
2019-03-31T10:40:55.111Z,21.67
2019-03-31T10:41:55.193Z,21.66
2019-03-31T10:42:55.172Z,21.66
2019-03-31T10:43:55.256Z,21.63
2019-03-31T10:44:55.295Z,21.66
2019-03-31T10:45:55.568Z,21.71
2019-03-31T10:46:58.335Z,21.71
2019-03-31T10:47:55.383Z,21.70
2019-03-31T10:48:55.445Z,21.70
2019-03-31T10:49:55.405Z,21.74
2019-03-31T10:50:55.431Z,21.74
2019-03-31T10:51:55.516Z,21.75
2019-03-31T10:52:55.853Z,21.79
2019-03-31T10:53:55.533Z,21.81
2019-03-31T10:54:55.617Z,21.79
2019-03-31T10:55:55.603Z,21.73
2019-03-31T10:56:55.653Z,21.79
2019-03-31T10:57:55.665Z,21.77
2019-03-31T10:58:55.855Z,21.86
2019-03-31T10:59:56.029Z,21.74
2019-03-31T11:00:55.815Z,21.91
2019-03-31T11:01:55.852Z,21.82
2019-03-31T11:02:55.884Z,21.85
2019-03-31T11:03:55.866Z,21.82
2019-03-31T11:04:55.965Z,21.90
2019-03-31T11:06:59.664Z,21.93
2019-03-31T11:07:56.299Z,21.90
2019-03-31T11:08:56.085Z,21.91
2019-03-31T11:09:56.064Z,21.90
2019-03-31T11:11:56.179Z,21.81
2019-03-31T11:12:56.211Z,21.89
2019-03-31T11:13:56.227Z,21.83
2019-03-31T11:14:56.526Z,21.91
2019-03-31T11:15:57.643Z,21.91
2019-03-31T11:16:56.299Z,21.90
2019-03-31T11:17:56.434Z,21.86
2019-03-31T11:19:56.470Z,21.90
2019-03-31T11:20:56.610Z,21.91
2019-03-31T11:21:56.813Z,21.90
2019-03-31T11:22:56.546Z,21.90
2019-03-31T11:23:56.526Z,21.91
2019-03-31T11:24:56.622Z,21.93
2019-03-31T11:25:56.674Z,21.96
2019-03-31T11:26:56.633Z,21.98
2019-03-31T11:27:56.663Z,21.91
2019-03-31T11:28:57.046Z,21.86
2019-03-31T11:29:56.783Z,21.90
2019-03-31T11:30:56.817Z,21.91
2019-03-31T11:31:56.841Z,21.89
2019-03-31T11:32:56.882Z,21.93
2019-03-31T11:33:56.935Z,21.99
2019-03-31T11:34:56.949Z,21.91
2019-03-31T11:35:57.484Z,21.96
2019-03-31T11:36:57.025Z,21.99
2019-03-31T11:38:57.029Z,21.99
2019-03-31T11:39:57.111Z,21.99
2019-03-31T11:40:57.145Z,22.02
2019-03-31T11:41:57.128Z,22.01
2019-03-31T11:42:57.458Z,22.04
2019-03-31T11:43:57.242Z,21.98
2019-03-31T11:44:57.281Z,22.02
2019-03-31T11:45:57.308Z,22.09
2019-03-31T11:46:57.296Z,22.09
2019-03-31T11:47:57.377Z,22.05
2019-03-31T11:48:57.417Z,22.05
2019-03-31T11:49:57.751Z,22.06
2019-03-31T11:51:00.345Z,22.08
2019-03-31T11:51:57.469Z,22.02
2019-03-31T11:52:57.572Z,22.01
2019-03-31T11:53:57.531Z,22.04
2019-03-31T11:54:57.609Z,22.06
2019-03-31T11:55:57.651Z,22.05
2019-03-31T11:56:57.986Z,22.04
2019-03-31T11:57:57.671Z,22.04
2019-03-31T11:58:57.698Z,22.04
2019-03-31T11:59:57.838Z,22.05
2019-03-31T12:00:57.869Z,22.05
2019-03-31T12:01:57.852Z,22.04
2019-03-31T12:02:57.837Z,22.09
2019-03-31T12:03:58.174Z,22.12
2019-03-31T12:04:57.904Z,22.09
2019-03-31T12:05:57.941Z,22.06
2019-03-31T12:06:58.024Z,22.11
2019-03-31T12:07:58.004Z,22.09
2019-03-31T12:08:58.084Z,22.11
2019-03-31T12:09:58.073Z,22.14
2019-03-31T12:10:58.409Z,22.11
2019-03-31T12:11:58.296Z,22.06
2019-03-31T12:12:58.222Z,22.12
2019-03-31T12:13:58.203Z,22.14
2019-03-31T12:15:00.598Z,22.11
2019-03-31T12:15:58.276Z,22.11
2019-03-31T12:16:58.370Z,22.12
2019-03-31T12:17:58.692Z,22.11
2019-03-31T12:18:58.374Z,22.11
2019-03-31T12:19:58.414Z,22.14
2019-03-31T12:20:58.446Z,22.15
2019-03-31T12:21:58.626Z,22.21
2019-03-31T12:22:58.573Z,22.23
2019-03-31T12:23:58.691Z,22.24
2019-03-31T12:24:58.932Z,22.21
2019-03-31T12:25:58.608Z,22.21
2019-03-31T12:26:58.653Z,22.20
2019-03-31T12:27:58.740Z,22.26
2019-03-31T12:28:58.765Z,22.15
2019-03-31T12:29:58.747Z,22.26
2019-03-31T12:30:59.094Z,22.20
2019-03-31T12:31:58.870Z,22.21
2019-03-31T12:32:58.904Z,22.20
2019-03-31T12:33:58.934Z,22.26
2019-03-31T12:34:58.971Z,22.21
2019-03-31T12:35:58.998Z,22.21
2019-03-31T12:36:59.288Z,22.26
2019-03-31T12:37:59.030Z,22.26
2019-03-31T12:38:59.105Z,22.21
2019-03-31T12:39:59.144Z,22.27
2019-03-31T12:40:59.173Z,22.30
2019-03-31T12:41:59.202Z,22.31
2019-03-31T12:42:59.539Z,22.31
2019-03-31T12:43:59.230Z,22.30
2019-03-31T12:44:59.312Z,22.30
2019-03-31T12:45:59.344Z,22.33
2019-03-31T12:46:59.378Z,22.21
2019-03-31T12:48:01.322Z,22.30
2019-03-31T12:48:59.450Z,22.30
2019-03-31T12:49:59.730Z,22.30
2019-03-31T12:50:59.512Z,22.26
2019-03-31T12:51:59.552Z,22.33
2019-03-31T12:52:59.531Z,22.24
2019-03-31T12:53:59.563Z,22.36
2019-03-31T12:54:59.604Z,22.36
2019-03-31T12:56:00.691Z,22.31
2019-03-31T12:57:00.025Z,22.36
2019-03-31T12:57:59.749Z,22.35
2019-03-31T12:58:59.887Z,22.36
2019-03-31T12:59:59.780Z,22.35
2019-03-31T13:00:59.854Z,22.44
2019-03-31T13:01:59.895Z,22.44
2019-03-31T13:02:59.930Z,22.42
2019-03-31T13:04:00.216Z,22.39
2019-03-31T13:04:59.996Z,22.38
2019-03-31T13:07:00.007Z,22.41
2019-03-31T13:08:00.091Z,22.46
2019-03-31T13:09:00.133Z,22.39
2019-03-31T13:10:00.467Z,22.39
2019-03-31T13:11:00.535Z,22.39
2019-03-31T13:12:00.234Z,22.49
2019-03-31T13:13:00.265Z,22.45
2019-03-31T13:14:00.312Z,22.41
2019-03-31T13:15:00.394Z,22.42
2019-03-31T13:16:00.422Z,22.51
2019-03-31T13:17:01.616Z,22.49
2019-03-31T13:18:00.749Z,22.51
2019-03-31T13:19:00.477Z,22.56
2019-03-31T13:22:00.530Z,22.56
2019-03-31T13:23:00.616Z,22.59
2019-03-31T13:24:00.648Z,22.64
2019-03-31T13:25:02.560Z,22.67
2019-03-31T13:26:00.728Z,22.72
2019-03-31T13:27:00.706Z,22.70
2019-03-31T13:28:00.739Z,22.75
2019-03-31T13:29:00.779Z,22.67
2019-03-31T13:30:00.862Z,22.63
2019-03-31T13:31:00.895Z,22.75
2019-03-31T13:32:01.235Z,22.67
2019-03-31T13:33:00.987Z,22.75
2019-03-31T13:34:01.007Z,22.76
2019-03-31T13:35:00.989Z,22.82
2019-03-31T13:36:01.073Z,22.84
2019-03-31T13:37:01.060Z,22.89
2019-03-31T13:38:11.113Z,22.93
2019-03-31T13:39:01.433Z,22.96
2019-03-31T13:40:01.167Z,22.99
2019-03-31T13:41:01.250Z,22.99
2019-03-31T13:42:01.250Z,23.04
2019-03-31T13:43:01.281Z,23.06
2019-03-31T13:44:01.313Z,23.07
2019-03-31T13:45:01.402Z,23.11
2019-03-31T13:46:01.824Z,23.06
2019-03-31T13:47:06.522Z,23.15
2019-03-31T13:48:01.455Z,23.15
2019-03-31T13:49:01.541Z,23.18
2019-03-31T13:50:01.528Z,23.25